sensor_id;sensor_type;location;lat;lon;timestamp;P1;durP1;ratioP1;P2;durP2;ratioP2
17253;SDS011;32542;52.832;13.816;2023-11-19T00:01:06;11.73;;;5.88;;
17253;SDS011;32542;52.832;13.816;2023-11-19T00:04:09;11.95;;;6.22;;
17253;SDS011;32542;52.832;13.816;2023-11-19T00:07:14;12.18;;;6.10;;
17253;SDS011;32542;52.832;13.816;2023-11-19T00:10:19;14.32;;;6.15;;
17253;SDS011;32542;52.832;13.816;2023-11-19T00:13:22;13.85;;;6.63;;
17253;SDS011;32542;52.832;13.816;2023-11-19T00:16:27;13.65;;;6.35;;
17253;SDS011;32542;52.832;13.816;2023-11-19T00:19:30;11.00;;;5.70;;
17253;SDS011;32542;52.832;13.816;2023-11-19T00:22:34;13.35;;;6.32;;
17253;SDS011;32542;52.832;13.816;2023-11-19T00:25:48;13.88;;;5.90;;
17253;SDS011;32542;52.832;13.816;2023-11-19T00:28:51;11.70;;;6.15;;
17253;SDS011;32542;52.832;13.816;2023-11-19T00:31:55;9.95;;;5.57;;
17253;SDS011;32542;52.832;13.816;2023-11-19T00:34:58;13.38;;;5.15;;
17253;SDS011;32542;52.832;13.816;2023-11-19T00:38:03;11.30;;;5.70;;
17253;SDS011;32542;52.832;13.816;2023-11-19T00:41:06;12.20;;;5.32;;
17253;SDS011;32542;52.832;13.816;2023-11-19T00:44:09;8.80;;;5.05;;
17253;SDS011;32542;52.832;13.816;2023-11-19T00:47:11;12.18;;;5.05;;
17253;SDS011;32542;52.832;13.816;2023-11-19T00:50:14;10.50;;;5.30;;
17253;SDS011;32542;52.832;13.816;2023-11-19T00:53:19;10.48;;;5.10;;
17253;SDS011;32542;52.832;13.816;2023-11-19T00:56:22;8.82;;;4.88;;
17253;SDS011;32542;52.832;13.816;2023-11-19T00:59:25;9.20;;;4.93;;
17253;SDS011;32542;52.832;13.816;2023-11-19T01:02:29;9.73;;;5.25;;
17253;SDS011;32542;52.832;13.816;2023-11-19T01:05:32;7.40;;;4.80;;
17253;SDS011;32542;52.832;13.816;2023-11-19T01:08:37;11.05;;;5.03;;
17253;SDS011;32542;52.832;13.816;2023-11-19T01:11:40;8.70;;;5.18;;
17253;SDS011;32542;52.832;13.816;2023-11-19T01:14:43;11.63;;;4.68;;
17253;SDS011;32542;52.832;13.816;2023-11-19T01:17:46;10.90;;;5.22;;
17253;SDS011;32542;52.832;13.816;2023-11-19T01:20:54;8.32;;;4.63;;
17253;SDS011;32542;52.832;13.816;2023-11-19T01:23:58;7.50;;;4.50;;
17253;SDS011;32542;52.832;13.816;2023-11-19T01:27:02;8.23;;;4.78;;
17253;SDS011;32542;52.832;13.816;2023-11-19T01:30:05;8.77;;;4.88;;
17253;SDS011;32542;52.832;13.816;2023-11-19T01:33:11;9.88;;;4.93;;
17253;SDS011;32542;52.832;13.816;2023-11-19T01:36:14;7.68;;;4.78;;
17253;SDS011;32542;52.832;13.816;2023-11-19T01:39:18;9.02;;;4.60;;
17253;SDS011;32542;52.832;13.816;2023-11-19T01:42:22;8.75;;;4.72;;
17253;SDS011;32542;52.832;13.816;2023-11-19T01:45:27;8.18;;;4.32;;
17253;SDS011;32542;52.832;13.816;2023-11-19T01:48:32;8.50;;;4.35;;
17253;SDS011;32542;52.832;13.816;2023-11-19T01:51:38;8.73;;;4.35;;
17253;SDS011;32542;52.832;13.816;2023-11-19T01:54:43;9.93;;;4.43;;
17253;SDS011;32542;52.832;13.816;2023-11-19T01:57:47;6.82;;;4.05;;
17253;SDS011;32542;52.832;13.816;2023-11-19T02:00:52;9.35;;;4.70;;
17253;SDS011;32542;52.832;13.816;2023-11-19T02:03:56;7.45;;;4.20;;
17253;SDS011;32542;52.832;13.816;2023-11-19T02:07:00;6.13;;;3.95;;
17253;SDS011;32542;52.832;13.816;2023-11-19T02:10:05;6.65;;;4.30;;
17253;SDS011;32542;52.832;13.816;2023-11-19T02:13:14;9.27;;;4.35;;
17253;SDS011;32542;52.832;13.816;2023-11-19T02:16:18;7.57;;;4.20;;
17253;SDS011;32542;52.832;13.816;2023-11-19T02:19:21;7.72;;;4.20;;
17253;SDS011;32542;52.832;13.816;2023-11-19T02:22:24;8.82;;;4.18;;
17253;SDS011;32542;52.832;13.816;2023-11-19T02:25:29;6.57;;;3.78;;
17253;SDS011;32542;52.832;13.816;2023-11-19T02:28:36;7.25;;;4.13;;
17253;SDS011;32542;52.832;13.816;2023-11-19T02:31:39;6.95;;;3.88;;
17253;SDS011;32542;52.832;13.816;2023-11-19T02:34:42;6.38;;;3.63;;
17253;SDS011;32542;52.832;13.816;2023-11-19T02:37:45;6.72;;;4.03;;
17253;SDS011;32542;52.832;13.816;2023-11-19T02:40:48;7.57;;;3.60;;
17253;SDS011;32542;52.832;13.816;2023-11-19T02:43:53;8.55;;;3.78;;
17253;SDS011;32542;52.832;13.816;2023-11-19T02:46:56;7.13;;;3.63;;
17253;SDS011;32542;52.832;13.816;2023-11-19T02:50:01;6.50;;;3.92;;
17253;SDS011;32542;52.832;13.816;2023-11-19T02:53:04;6.15;;;3.95;;
17253;SDS011;32542;52.832;13.816;2023-11-19T02:56:08;7.13;;;4.22;;
17253;SDS011;32542;52.832;13.816;2023-11-19T02:59:22;5.60;;;3.50;;
17253;SDS011;32542;52.832;13.816;2023-11-19T03:02:29;6.13;;;3.65;;
17253;SDS011;32542;52.832;13.816;2023-11-19T03:05:36;6.80;;;3.67;;
17253;SDS011;32542;52.832;13.816;2023-11-19T03:08:39;6.07;;;3.63;;
17253;SDS011;32542;52.832;13.816;2023-11-19T03:11:42;5.82;;;3.75;;
17253;SDS011;32542;52.832;13.816;2023-11-19T03:14:46;4.90;;;3.35;;
17253;SDS011;32542;52.832;13.816;2023-11-19T03:17:52;7.80;;;4.00;;
17253;SDS011;32542;52.832;13.816;2023-11-19T03:20:55;5.80;;;3.50;;
17253;SDS011;32542;52.832;13.816;2023-11-19T03:24:00;5.65;;;3.53;;
17253;SDS011;32542;52.832;13.816;2023-11-19T03:27:03;5.65;;;3.30;;
17253;SDS011;32542;52.832;13.816;2023-11-19T03:30:08;5.05;;;3.35;;
17253;SDS011;32542;52.832;13.816;2023-11-19T03:33:12;7.00;;;3.58;;
17253;SDS011;32542;52.832;13.816;2023-11-19T03:36:15;5.75;;;3.75;;
17253;SDS011;32542;52.832;13.816;2023-11-19T03:39:18;4.97;;;3.20;;
17253;SDS011;32542;52.832;13.816;2023-11-19T03:42:21;5.75;;;3.58;;
17253;SDS011;32542;52.832;13.816;2023-11-19T03:45:26;6.07;;;3.75;;
17253;SDS011;32542;52.832;13.816;2023-11-19T03:48:29;6.55;;;3.50;;
17253;SDS011;32542;52.832;13.816;2023-11-19T03:51:32;5.60;;;3.42;;
17253;SDS011;32542;52.832;13.816;2023-11-19T03:54:36;6.25;;;3.47;;
17253;SDS011;32542;52.832;13.816;2023-11-19T03:57:39;5.50;;;3.90;;
17253;SDS011;32542;52.832;13.816;2023-11-19T04:00:43;5.53;;;3.60;;
17253;SDS011;32542;52.832;13.816;2023-11-19T04:03:46;5.57;;;3.30;;
17253;SDS011;32542;52.832;13.816;2023-11-19T04:06:53;6.10;;;3.63;;
17253;SDS011;32542;52.832;13.816;2023-11-19T04:09:56;4.32;;;3.10;;
17253;SDS011;32542;52.832;13.816;2023-11-19T04:12:59;6.10;;;3.80;;
17253;SDS011;32542;52.832;13.816;2023-11-19T04:16:04;4.50;;;3.20;;
17253;SDS011;32542;52.832;13.816;2023-11-19T04:19:07;4.68;;;3.10;;
17253;SDS011;32542;52.832;13.816;2023-11-19T04:22:10;5.95;;;3.47;;
17253;SDS011;32542;52.832;13.816;2023-11-19T04:25:13;5.00;;;3.38;;
17253;SDS011;32542;52.832;13.816;2023-11-19T04:28:18;4.00;;;2.97;;
17253;SDS011;32542;52.832;13.816;2023-11-19T04:31:22;5.55;;;2.75;;
17253;SDS011;32542;52.832;13.816;2023-11-19T04:34:27;5.15;;;2.80;;
17253;SDS011;32542;52.832;13.816;2023-11-19T04:37:30;5.50;;;3.38;;
17253;SDS011;32542;52.832;13.816;2023-11-19T04:40:33;6.55;;;3.13;;
17253;SDS011;32542;52.832;13.816;2023-11-19T04:43:36;4.60;;;3.05;;
17253;SDS011;32542;52.832;13.816;2023-11-19T04:46:41;4.75;;;3.15;;
17253;SDS011;32542;52.832;13.816;2023-11-19T04:49:44;5.30;;;3.15;;
17253;SDS011;32542;52.832;13.816;2023-11-19T04:52:47;4.78;;;2.65;;
17253;SDS011;32542;52.832;13.816;2023-11-19T04:55:50;4.60;;;2.88;;
17253;SDS011;32542;52.832;13.816;2023-11-19T04:58:53;5.18;;;2.95;;
17253;SDS011;32542;52.832;13.816;2023-11-19T05:01:57;4.10;;;2.83;;
17253;SDS011;32542;52.832;13.816;2023-11-19T05:05:00;4.15;;;2.95;;
17253;SDS011;32542;52.832;13.816;2023-11-19T05:08:05;7.07;;;2.83;;
17253;SDS011;32542;52.832;13.816;2023-11-19T05:11:08;4.65;;;3.08;;
17253;SDS011;32542;52.832;13.816;2023-11-19T05:14:13;4.75;;;3.03;;
17253;SDS011;32542;52.832;13.816;2023-11-19T05:17:18;4.05;;;2.67;;
17253;SDS011;32542;52.832;13.816;2023-11-19T05:20:21;4.10;;;2.83;;
17253;SDS011;32542;52.832;13.816;2023-11-19T05:23:24;4.43;;;2.95;;
17253;SDS011;32542;52.832;13.816;2023-11-19T05:26:27;4.97;;;2.95;;
17253;SDS011;32542;52.832;13.816;2023-11-19T05:29:30;4.88;;;2.70;;
17253;SDS011;32542;52.832;13.816;2023-11-19T05:32:34;4.07;;;2.70;;
17253;SDS011;32542;52.832;13.816;2023-11-19T05:35:37;3.17;;;2.42;;
17253;SDS011;32542;52.832;13.816;2023-11-19T05:38:40;3.83;;;2.80;;
17253;SDS011;32542;52.832;13.816;2023-11-19T05:41:43;3.30;;;2.45;;
17253;SDS011;32542;52.832;13.816;2023-11-19T05:44:46;4.78;;;2.47;;
17253;SDS011;32542;52.832;13.816;2023-11-19T05:47:50;3.80;;;2.90;;
17253;SDS011;32542;52.832;13.816;2023-11-19T05:50:54;3.97;;;2.90;;
17253;SDS011;32542;52.832;13.816;2023-11-19T05:53:57;4.95;;;2.92;;
17253;SDS011;32542;52.832;13.816;2023-11-19T05:57:00;4.82;;;3.10;;
17253;SDS011;32542;52.832;13.816;2023-11-19T06:00:04;3.70;;;2.38;;
17253;SDS011;32542;52.832;13.816;2023-11-19T06:03:13;4.10;;;2.60;;
17253;SDS011;32542;52.832;13.816;2023-11-19T06:06:16;2.97;;;2.33;;
17253;SDS011;32542;52.832;13.816;2023-11-19T06:09:20;3.97;;;2.58;;
17253;SDS011;32542;52.832;13.816;2023-11-19T06:12:24;3.92;;;2.80;;
17253;SDS011;32542;52.832;13.816;2023-11-19T06:15:29;3.85;;;2.50;;
17253;SDS011;32542;52.832;13.816;2023-11-19T06:18:33;3.47;;;2.80;;
17253;SDS011;32542;52.832;13.816;2023-11-19T06:21:36;4.25;;;2.85;;
17253;SDS011;32542;52.832;13.816;2023-11-19T06:24:39;4.63;;;2.42;;
17253;SDS011;32542;52.832;13.816;2023-11-19T06:27:42;4.18;;;2.58;;
17253;SDS011;32542;52.832;13.816;2023-11-19T06:30:45;3.97;;;2.50;;
17253;SDS011;32542;52.832;13.816;2023-11-19T06:33:51;4.38;;;2.67;;
17253;SDS011;32542;52.832;13.816;2023-11-19T06:36:54;3.30;;;2.33;;
17253;SDS011;32542;52.832;13.816;2023-11-19T06:39:57;3.08;;;2.33;;
17253;SDS011;32542;52.832;13.816;2023-11-19T06:43:00;3.63;;;2.80;;
17253;SDS011;32542;52.832;13.816;2023-11-19T06:46:05;3.53;;;2.60;;
17253;SDS011;32542;52.832;13.816;2023-11-19T06:49:09;3.33;;;2.38;;
17253;SDS011;32542;52.832;13.816;2023-11-19T06:52:12;2.97;;;2.33;;
17253;SDS011;32542;52.832;13.816;2023-11-19T06:55:15;5.38;;;2.70;;
17253;SDS011;32542;52.832;13.816;2023-11-19T06:58:18;4.40;;;2.53;;
17253;SDS011;32542;52.832;13.816;2023-11-19T07:01:21;2.95;;;2.22;;
17253;SDS011;32542;52.832;13.816;2023-11-19T07:04:26;3.13;;;2.30;;
17253;SDS011;32542;52.832;13.816;2023-11-19T07:07:29;7.10;;;3.22;;
17253;SDS011;32542;52.832;13.816;2023-11-19T07:10:32;3.88;;;2.60;;
17253;SDS011;32542;52.832;13.816;2023-11-19T07:13:35;5.68;;;2.65;;
17253;SDS011;32542;52.832;13.816;2023-11-19T07:16:38;4.82;;;2.40;;
17253;SDS011;32542;52.832;13.816;2023-11-19T07:19:43;7.90;;;2.53;;
17253;SDS011;32542;52.832;13.816;2023-11-19T07:22:46;5.93;;;2.70;;
17253;SDS011;32542;52.832;13.816;2023-11-19T07:25:48;6.10;;;2.33;;
17253;SDS011;32542;52.832;13.816;2023-11-19T07:28:54;6.40;;;2.60;;
17253;SDS011;32542;52.832;13.816;2023-11-19T07:31:57;7.03;;;2.72;;
17253;SDS011;32542;52.832;13.816;2023-11-19T07:35:01;10.23;;;2.85;;
17253;SDS011;32542;52.832;13.816;2023-11-19T07:38:05;5.72;;;2.47;;
17253;SDS011;32542;52.832;13.816;2023-11-19T07:41:08;11.32;;;2.75;;
17253;SDS011;32542;52.832;13.816;2023-11-19T07:44:14;5.53;;;2.70;;
17253;SDS011;32542;52.832;13.816;2023-11-19T07:47:17;5.15;;;2.70;;
17253;SDS011;32542;52.832;13.816;2023-11-19T07:50:21;3.72;;;2.28;;
17253;SDS011;32542;52.832;13.816;2023-11-19T07:53:24;4.95;;;2.30;;
17253;SDS011;32542;52.832;13.816;2023-11-19T07:56:27;5.75;;;2.55;;
17253;SDS011;32542;52.832;13.816;2023-11-19T07:59:30;5.35;;;2.40;;
17253;SDS011;32542;52.832;13.816;2023-11-19T08:02:33;5.43;;;2.70;;
17253;SDS011;32542;52.832;13.816;2023-11-19T08:05:37;5.15;;;2.70;;
17253;SDS011;32542;52.832;13.816;2023-11-19T08:08:41;3.42;;;2.38;;
17253;SDS011;32542;52.832;13.816;2023-11-19T08:11:44;3.90;;;2.30;;
17253;SDS011;32542;52.832;13.816;2023-11-19T08:14:47;4.72;;;2.50;;
17253;SDS011;32542;52.832;13.816;2023-11-19T08:17:50;5.13;;;2.35;;
17253;SDS011;32542;52.832;13.816;2023-11-19T08:20:55;4.13;;;2.30;;
17253;SDS011;32542;52.832;13.816;2023-11-19T08:23:59;5.53;;;2.53;;
17253;SDS011;32542;52.832;13.816;2023-11-19T08:27:02;5.45;;;2.22;;
17253;SDS011;32542;52.832;13.816;2023-11-19T08:30:06;5.07;;;2.10;;
17253;SDS011;32542;52.832;13.816;2023-11-19T08:33:10;4.38;;;2.20;;
17253;SDS011;32542;52.832;13.816;2023-11-19T08:36:17;5.38;;;2.63;;
17253;SDS011;32542;52.832;13.816;2023-11-19T08:39:20;5.63;;;2.38;;
17253;SDS011;32542;52.832;13.816;2023-11-19T08:42:23;3.20;;;2.38;;
17253;SDS011;32542;52.832;13.816;2023-11-19T08:45:26;5.93;;;2.53;;
17253;SDS011;32542;52.832;13.816;2023-11-19T08:48:29;3.03;;;2.10;;
17253;SDS011;32542;52.832;13.816;2023-11-19T08:51:34;5.38;;;2.40;;
17253;SDS011;32542;52.832;13.816;2023-11-19T08:54:37;3.60;;;1.98;;
17253;SDS011;32542;52.832;13.816;2023-11-19T08:57:40;2.67;;;1.98;;
17253;SDS011;32542;52.832;13.816;2023-11-19T09:00:43;4.28;;;2.10;;
17253;SDS011;32542;52.832;13.816;2023-11-19T09:03:46;5.20;;;2.10;;
17253;SDS011;32542;52.832;13.816;2023-11-19T09:06:51;3.15;;;2.22;;
17253;SDS011;32542;52.832;13.816;2023-11-19T09:09:53;7.25;;;2.38;;
17253;SDS011;32542;52.832;13.816;2023-11-19T09:12:56;3.20;;;2.08;;
17253;SDS011;32542;52.832;13.816;2023-11-19T09:15:59;3.67;;;2.30;;
17253;SDS011;32542;52.832;13.816;2023-11-19T09:19:05;3.17;;;1.90;;
17253;SDS011;32542;52.832;13.816;2023-11-19T09:22:09;3.00;;;2.13;;
17253;SDS011;32542;52.832;13.816;2023-11-19T09:25:12;3.72;;;1.98;;
17253;SDS011;32542;52.832;13.816;2023-11-19T09:28:18;3.72;;;2.30;;
17253;SDS011;32542;52.832;13.816;2023-11-19T09:31:21;6.65;;;2.10;;
17253;SDS011;32542;52.832;13.816;2023-11-19T09:34:24;4.07;;;2.20;;
17253;SDS011;32542;52.832;13.816;2023-11-19T09:37:28;5.10;;;2.10;;
17253;SDS011;32542;52.832;13.816;2023-11-19T09:40:31;3.33;;;1.95;;
17253;SDS011;32542;52.832;13.816;2023-11-19T09:43:35;3.40;;;2.00;;
17253;SDS011;32542;52.832;13.816;2023-11-19T09:46:38;1.88;;;1.60;;
17253;SDS011;32542;52.832;13.816;2023-11-19T09:49:43;3.90;;;2.10;;
17253;SDS011;32542;52.832;13.816;2023-11-19T09:52:48;3.13;;;1.70;;
17253;SDS011;32542;52.832;13.816;2023-11-19T09:55:51;2.47;;;1.40;;
17253;SDS011;32542;52.832;13.816;2023-11-19T09:58:55;2.30;;;1.48;;
17253;SDS011;32542;52.832;13.816;2023-11-19T10:01:59;3.70;;;1.60;;
17253;SDS011;32542;52.832;13.816;2023-11-19T10:05:04;3.53;;;1.80;;
17253;SDS011;32542;52.832;13.816;2023-11-19T10:08:10;3.63;;;1.70;;
17253;SDS011;32542;52.832;13.816;2023-11-19T10:11:13;3.40;;;1.50;;
17253;SDS011;32542;52.832;13.816;2023-11-19T10:14:17;3.45;;;1.70;;
17253;SDS011;32542;52.832;13.816;2023-11-19T10:17:28;5.65;;;1.50;;
17253;SDS011;32542;52.832;13.816;2023-11-19T10:20:35;3.97;;;1.70;;
17253;SDS011;32542;52.832;13.816;2023-11-19T10:27:02;4.97;;;1.77;;
17253;SDS011;32542;52.832;13.816;2023-11-19T10:30:05;3.45;;;1.50;;
17253;SDS011;32542;52.832;13.816;2023-11-19T10:33:12;4.07;;;1.80;;
17253;SDS011;32542;52.832;13.816;2023-11-19T10:36:19;3.63;;;1.63;;
17253;SDS011;32542;52.832;13.816;2023-11-19T10:39:26;2.55;;;1.75;;
17253;SDS011;32542;52.832;13.816;2023-11-19T10:43:01;2.17;;;1.38;;
17253;SDS011;32542;52.832;13.816;2023-11-19T10:46:14;4.40;;;1.50;;
17253;SDS011;32542;52.832;13.816;2023-11-19T10:49:22;2.15;;;1.70;;
17253;SDS011;32542;52.832;13.816;2023-11-19T10:52:25;2.67;;;1.60;;
17253;SDS011;32542;52.832;13.816;2023-11-19T10:55:31;3.35;;;1.65;;
17253;SDS011;32542;52.832;13.816;2023-11-19T10:58:36;5.05;;;1.90;;
17253;SDS011;32542;52.832;13.816;2023-11-19T11:01:44;2.50;;;1.60;;
17253;SDS011;32542;52.832;13.816;2023-11-19T11:04:48;2.88;;;1.60;;
17253;SDS011;32542;52.832;13.816;2023-11-19T11:07:55;2.53;;;1.80;;
17253;SDS011;32542;52.832;13.816;2023-11-19T11:11:00;4.40;;;1.60;;
17253;SDS011;32542;52.832;13.816;2023-11-19T11:14:05;2.40;;;1.38;;
17253;SDS011;32542;52.832;13.816;2023-11-19T11:17:10;3.58;;;1.40;;
17253;SDS011;32542;52.832;13.816;2023-11-19T11:20:19;19.20;;;3.00;;
17253;SDS011;32542;52.832;13.816;2023-11-19T11:23:30;12.88;;;2.25;;
17253;SDS011;32542;52.832;13.816;2023-11-19T11:30:33;11.77;;;2.00;;
17253;SDS011;32542;52.832;13.816;2023-11-19T11:33:59;7.32;;;1.55;;
17253;SDS011;32542;52.832;13.816;2023-11-19T11:37:12;12.77;;;1.70;;
17253;SDS011;32542;52.832;13.816;2023-11-19T11:40:20;8.20;;;1.88;;
17253;SDS011;32542;52.832;13.816;2023-11-19T11:43:44;7.75;;;1.70;;
17253;SDS011;32542;52.832;13.816;2023-11-19T11:46:54;7.05;;;1.52;;
17253;SDS011;32542;52.832;13.816;2023-11-19T11:49:59;18.17;;;2.00;;
17253;SDS011;32542;52.832;13.816;2023-11-19T11:53:13;7.10;;;1.50;;
17253;SDS011;32542;52.832;13.816;2023-11-19T11:56:18;9.32;;;1.65;;
17253;SDS011;32542;52.832;13.816;2023-11-19T11:59:24;8.77;;;1.40;;
17253;SDS011;32542;52.832;13.816;2023-11-19T12:02:27;6.63;;;1.58;;
17253;SDS011;32542;52.832;13.816;2023-11-19T12:05:30;3.08;;;1.58;;
17253;SDS011;32542;52.832;13.816;2023-11-19T12:08:35;6.15;;;1.77;;
17253;SDS011;32542;52.832;13.816;2023-11-19T12:11:46;8.07;;;1.58;;
17253;SDS011;32542;52.832;13.816;2023-11-19T12:15:07;4.93;;;1.52;;
17253;SDS011;32542;52.832;13.816;2023-11-19T12:18:16;7.10;;;1.50;;
17253;SDS011;32542;52.832;13.816;2023-11-19T12:21:28;8.27;;;1.73;;
17253;SDS011;32542;52.832;13.816;2023-11-19T12:24:32;7.25;;;1.75;;
17253;SDS011;32542;52.832;13.816;2023-11-19T12:27:36;15.77;;;2.47;;
17253;SDS011;32542;52.832;13.816;2023-11-19T12:30:41;6.75;;;1.83;;
17253;SDS011;32542;52.832;13.816;2023-11-19T12:33:45;7.05;;;1.35;;
17253;SDS011;32542;52.832;13.816;2023-11-19T12:36:49;9.93;;;1.77;;
17253;SDS011;32542;52.832;13.816;2023-11-19T12:39:52;11.07;;;1.70;;
17253;SDS011;32542;52.832;13.816;2023-11-19T12:42:55;8.32;;;1.88;;
17253;SDS011;32542;52.832;13.816;2023-11-19T12:46:00;4.28;;;1.88;;
17253;SDS011;32542;52.832;13.816;2023-11-19T12:49:07;6.30;;;2.00;;
17253;SDS011;32542;52.832;13.816;2023-11-19T12:52:12;3.88;;;1.38;;
17253;SDS011;32542;52.832;13.816;2023-11-19T12:55:25;6.88;;;1.67;;
17253;SDS011;32542;52.832;13.816;2023-11-19T12:58:31;5.97;;;1.38;;
17253;SDS011;32542;52.832;13.816;2023-11-19T13:01:37;1.95;;;1.30;;
17253;SDS011;32542;52.832;13.816;2023-11-19T13:04:41;5.43;;;1.55;;
17253;SDS011;32542;52.832;13.816;2023-11-19T13:07:44;6.18;;;1.85;;
17253;SDS011;32542;52.832;13.816;2023-11-19T13:10:50;5.03;;;1.63;;
17253;SDS011;32542;52.832;13.816;2023-11-19T13:13:55;3.92;;;1.63;;
17253;SDS011;32542;52.832;13.816;2023-11-19T13:17:00;3.97;;;1.48;;
17253;SDS011;32542;52.832;13.816;2023-11-19T13:20:03;7.55;;;1.75;;
17253;SDS011;32542;52.832;13.816;2023-11-19T13:23:07;6.38;;;1.63;;
17253;SDS011;32542;52.832;13.816;2023-11-19T13:26:10;5.55;;;1.45;;
17253;SDS011;32542;52.832;13.816;2023-11-19T13:29:13;4.88;;;1.70;;
17253;SDS011;32542;52.832;13.816;2023-11-19T13:32:17;2.58;;;1.40;;
17253;SDS011;32542;52.832;13.816;2023-11-19T13:35:21;2.97;;;1.35;;
17253;SDS011;32542;52.832;13.816;2023-11-19T13:38:24;6.18;;;1.60;;
17253;SDS011;32542;52.832;13.816;2023-11-19T13:41:27;5.30;;;1.30;;
17253;SDS011;32542;52.832;13.816;2023-11-19T13:44:30;5.28;;;1.48;;
17253;SDS011;32542;52.832;13.816;2023-11-19T13:47:34;5.53;;;1.30;;
17253;SDS011;32542;52.832;13.816;2023-11-19T13:50:37;6.60;;;1.60;;
17253;SDS011;32542;52.832;13.816;2023-11-19T13:53:40;5.65;;;1.67;;
17253;SDS011;32542;52.832;13.816;2023-11-19T13:56:47;6.60;;;1.50;;
17253;SDS011;32542;52.832;13.816;2023-11-19T13:59:50;8.57;;;1.55;;
17253;SDS011;32542;52.832;13.816;2023-11-19T14:02:55;4.97;;;1.80;;
17253;SDS011;32542;52.832;13.816;2023-11-19T14:05:58;4.82;;;1.58;;
17253;SDS011;32542;52.832;13.816;2023-11-19T14:09:01;5.80;;;1.80;;
17253;SDS011;32542;52.832;13.816;2023-11-19T14:12:04;5.45;;;1.67;;
17253;SDS011;32542;52.832;13.816;2023-11-19T14:15:08;5.75;;;1.52;;
17253;SDS011;32542;52.832;13.816;2023-11-19T14:18:15;9.68;;;1.60;;
17253;SDS011;32542;52.832;13.816;2023-11-19T14:21:18;5.40;;;1.58;;
17253;SDS011;32542;52.832;13.816;2023-11-19T14:24:21;10.75;;;1.92;;
17253;SDS011;32542;52.832;13.816;2023-11-19T14:27:25;5.90;;;1.50;;
17253;SDS011;32542;52.832;13.816;2023-11-19T14:30:28;5.65;;;1.75;;
17253;SDS011;32542;52.832;13.816;2023-11-19T14:33:33;8.15;;;2.00;;
17253;SDS011;32542;52.832;13.816;2023-11-19T14:36:37;8.63;;;1.70;;
17253;SDS011;32542;52.832;13.816;2023-11-19T14:39:40;8.20;;;1.52;;
17253;SDS011;32542;52.832;13.816;2023-11-19T14:42:43;9.45;;;1.65;;
17253;SDS011;32542;52.832;13.816;2023-11-19T14:45:46;9.32;;;1.75;;
17253;SDS011;32542;52.832;13.816;2023-11-19T14:48:52;3.95;;;1.52;;
17253;SDS011;32542;52.832;13.816;2023-11-19T14:51:55;9.40;;;1.73;;
17253;SDS011;32542;52.832;13.816;2023-11-19T14:55:18;6.97;;;1.75;;
17253;SDS011;32542;52.832;13.816;2023-11-19T14:58:21;5.93;;;1.40;;
17253;SDS011;32542;52.832;13.816;2023-11-19T15:01:24;4.93;;;1.38;;
17253;SDS011;32542;52.832;13.816;2023-11-19T15:04:29;6.88;;;1.67;;
17253;SDS011;32542;52.832;13.816;2023-11-19T15:07:32;4.95;;;1.60;;
17253;SDS011;32542;52.832;13.816;2023-11-19T15:10:37;4.65;;;1.55;;
17253;SDS011;32542;52.832;13.816;2023-11-19T15:13:40;5.93;;;1.40;;
17253;SDS011;32542;52.832;13.816;2023-11-19T15:16:43;11.52;;;2.33;;
17253;SDS011;32542;52.832;13.816;2023-11-19T15:19:48;9.50;;;1.50;;
17253;SDS011;32542;52.832;13.816;2023-11-19T15:22:51;4.78;;;1.33;;
17253;SDS011;32542;52.832;13.816;2023-11-19T15:25:54;3.55;;;1.60;;
17253;SDS011;32542;52.832;13.816;2023-11-19T15:28:58;5.22;;;1.30;;
17253;SDS011;32542;52.832;13.816;2023-11-19T15:32:01;5.55;;;1.38;;
17253;SDS011;32542;52.832;13.816;2023-11-19T15:35:06;5.68;;;1.60;;
17253;SDS011;32542;52.832;13.816;2023-11-19T15:38:11;6.97;;;1.60;;
17253;SDS011;32542;52.832;13.816;2023-11-19T15:41:15;3.30;;;1.40;;
17253;SDS011;32542;52.832;13.816;2023-11-19T15:44:18;4.32;;;1.40;;
17253;SDS011;32542;52.832;13.816;2023-11-19T15:47:21;3.30;;;1.35;;
17253;SDS011;32542;52.832;13.816;2023-11-19T15:50:26;7.55;;;1.42;;
17253;SDS011;32542;52.832;13.816;2023-11-19T15:53:30;4.93;;;1.52;;
17253;SDS011;32542;52.832;13.816;2023-11-19T15:56:34;2.67;;;1.23;;
17253;SDS011;32542;52.832;13.816;2023-11-19T15:59:36;6.47;;;1.58;;
17253;SDS011;32542;52.832;13.816;2023-11-19T16:02:40;6.35;;;1.55;;
17253;SDS011;32542;52.832;13.816;2023-11-19T16:05:44;4.95;;;1.33;;
17253;SDS011;32542;52.832;13.816;2023-11-19T16:08:52;7.13;;;1.50;;
17253;SDS011;32542;52.832;13.816;2023-11-19T16:11:56;5.70;;;1.40;;
17253;SDS011;32542;52.832;13.816;2023-11-19T16:15:00;4.00;;;1.38;;
17253;SDS011;32542;52.832;13.816;2023-11-19T16:18:03;5.32;;;1.23;;
17253;SDS011;32542;52.832;13.816;2023-11-19T16:21:08;3.38;;;1.50;;
17253;SDS011;32542;52.832;13.816;2023-11-19T16:24:11;6.22;;;1.33;;
17253;SDS011;32542;52.832;13.816;2023-11-19T16:27:13;3.05;;;1.13;;
17253;SDS011;32542;52.832;13.816;2023-11-19T16:30:20;6.85;;;1.45;;
17253;SDS011;32542;52.832;13.816;2023-11-19T16:33:24;6.18;;;1.40;;
17253;SDS011;32542;52.832;13.816;2023-11-19T16:36:33;3.85;;;1.25;;
17253;SDS011;32542;52.832;13.816;2023-11-19T16:39:36;5.68;;;1.58;;
17253;SDS011;32542;52.832;13.816;2023-11-19T16:42:40;4.78;;;1.40;;
17253;SDS011;32542;52.832;13.816;2023-11-19T16:45:44;4.50;;;1.45;;
17253;SDS011;32542;52.832;13.816;2023-11-19T16:48:47;3.85;;;1.45;;
17253;SDS011;32542;52.832;13.816;2023-11-19T16:51:52;4.45;;;1.55;;
17253;SDS011;32542;52.832;13.816;2023-11-19T16:54:55;4.18;;;1.13;;
17253;SDS011;32542;52.832;13.816;2023-11-19T16:57:58;4.45;;;1.35;;
17253;SDS011;32542;52.832;13.816;2023-11-19T17:01:01;3.67;;;1.30;;
17253;SDS011;32542;52.832;13.816;2023-11-19T17:04:04;3.25;;;1.30;;
17253;SDS011;32542;52.832;13.816;2023-11-19T17:07:10;3.25;;;1.30;;
17253;SDS011;32542;52.832;13.816;2023-11-19T17:10:14;2.38;;;1.02;;
17253;SDS011;32542;52.832;13.816;2023-11-19T17:13:17;5.22;;;1.38;;
17253;SDS011;32542;52.832;13.816;2023-11-19T17:16:23;2.50;;;1.30;;
17253;SDS011;32542;52.832;13.816;2023-11-19T17:19:26;3.50;;;1.27;;
17253;SDS011;32542;52.832;13.816;2023-11-19T17:22:30;5.78;;;1.67;;
17253;SDS011;32542;52.832;13.816;2023-11-19T17:25:36;4.38;;;1.30;;
17253;SDS011;32542;52.832;13.816;2023-11-19T17:28:40;6.53;;;1.30;;
17253;SDS011;32542;52.832;13.816;2023-11-19T17:31:43;4.45;;;1.30;;
17253;SDS011;32542;52.832;13.816;2023-11-19T17:34:46;3.10;;;1.38;;
17253;SDS011;32542;52.832;13.816;2023-11-19T17:37:51;4.88;;;1.50;;
17253;SDS011;32542;52.832;13.816;2023-11-19T17:40:56;3.78;;;1.20;;
17253;SDS011;32542;52.832;13.816;2023-11-19T17:43:59;4.53;;;1.45;;
17253;SDS011;32542;52.832;13.816;2023-11-19T17:47:02;6.43;;;1.42;;
17253;SDS011;32542;52.832;13.816;2023-11-19T17:50:06;2.70;;;1.20;;
17253;SDS011;32542;52.832;13.816;2023-11-19T17:53:14;4.43;;;1.75;;
17253;SDS011;32542;52.832;13.816;2023-11-19T17:56:17;5.85;;;1.48;;
17253;SDS011;32542;52.832;13.816;2023-11-19T17:59:20;4.03;;;1.30;;
17253;SDS011;32542;52.832;13.816;2023-11-19T18:02:26;3.15;;;1.23;;
17253;SDS011;32542;52.832;13.816;2023-11-19T18:05:32;1.80;;;1.02;;
17253;SDS011;32542;52.832;13.816;2023-11-19T18:08:36;5.50;;;1.60;;
17253;SDS011;32542;52.832;13.816;2023-11-19T18:11:39;4.63;;;1.40;;
17253;SDS011;32542;52.832;13.816;2023-11-19T18:14:43;5.05;;;1.65;;
17253;SDS011;32542;52.832;13.816;2023-11-19T18:17:49;4.43;;;1.30;;
17253;SDS011;32542;52.832;13.816;2023-11-19T18:20:52;3.45;;;1.20;;